createdAt,value
2022-08-21T00:01:36.757Z,94422.28
2022-08-21T00:04:03.168Z,94417.27
2022-08-21T00:06:29.544Z,94414.34
2022-08-21T00:08:55.929Z,94404.00
2022-08-21T00:11:22.320Z,94403.04
2022-08-21T00:13:48.697Z,94400.59
2022-08-21T00:16:15.117Z,94404.67
2022-08-21T00:18:41.493Z,94403.86
2022-08-21T00:21:07.887Z,94399.16
2022-08-21T00:23:34.273Z,94396.58
2022-08-21T00:26:00.695Z,94397.52
2022-08-21T00:28:27.114Z,94389.77
2022-08-21T00:30:53.498Z,94393.64
2022-08-21T00:33:19.878Z,94401.75
2022-08-21T00:35:46.290Z,94394.59
2022-08-21T00:38:12.700Z,94392.83
2022-08-21T00:40:39.083Z,94392.35
2022-08-21T00:43:05.464Z,94388.12
2022-08-21T00:45:31.855Z,94400.45
2022-08-21T00:47:58.240Z,94402.70
2022-08-21T00:50:24.636Z,94403.86
2022-08-21T00:52:51.088Z,94396.40
2022-08-21T00:55:17.438Z,94408.05
2022-08-21T00:57:43.826Z,94401.06
2022-08-21T01:00:10.202Z,94397.19
2022-08-21T01:02:36.580Z,94388.12
2022-08-21T01:05:02.970Z,94388.12
2022-08-21T01:07:29.341Z,94387.34
2022-08-21T01:09:55.733Z,94382.17
2022-08-21T01:12:22.117Z,94378.28
2022-08-21T01:14:48.543Z,94377.78
2022-08-21T01:17:14.920Z,94381.19
2022-08-21T01:19:41.336Z,94378.28
2022-08-21T01:22:08.660Z,94375.19
2022-08-21T01:24:34.102Z,94381.35
2022-08-21T01:27:00.482Z,94374.88
2022-08-21T01:29:26.891Z,94374.88
2022-08-21T01:31:53.268Z,94367.59
2022-08-21T01:34:19.656Z,94372.77
2022-08-21T01:36:46.125Z,94379.58
2022-08-21T01:39:12.506Z,94370.66
2022-08-21T01:41:38.889Z,94368.89
2022-08-21T01:44:05.279Z,94373.59
2022-08-21T01:46:31.657Z,94371.95
2022-08-21T01:48:58.053Z,94369.37
2022-08-21T01:51:24.438Z,94368.55
2022-08-21T01:53:50.852Z,94378.28
2022-08-21T01:56:17.245Z,94382.64
2022-08-21T01:58:43.654Z,94381.35
2022-08-21T02:01:10.185Z,94385.70
2022-08-21T02:03:36.535Z,94380.05
2022-08-21T02:06:02.919Z,94379.24
2022-08-21T02:08:29.284Z,94381.02
2022-08-21T02:10:55.663Z,94379.72
2022-08-21T02:13:22.046Z,94379.72
2022-08-21T02:15:48.475Z,94384.41
2022-08-21T02:18:14.860Z,94392.99
2022-08-21T02:20:41.246Z,94396.06
2022-08-21T02:23:07.623Z,94384.89
2022-08-21T02:25:34.004Z,94387.00
2022-08-21T02:28:00.391Z,94393.95
2022-08-21T02:30:26.813Z,94397.83
2022-08-21T02:32:53.196Z,94397.70
2022-08-21T02:35:19.604Z,94396.20
2022-08-21T02:37:46.001Z,94405.94
2022-08-21T02:40:12.524Z,94395.72
2022-08-21T02:42:38.768Z,94393.61
2022-08-21T02:45:05.153Z,94396.20
2022-08-21T02:47:31.539Z,94397.02
2022-08-21T02:49:57.928Z,94398.31
2022-08-21T02:52:24.307Z,94397.48
2022-08-21T02:54:50.693Z,94403.00
2022-08-21T02:57:17.083Z,94398.78
2022-08-21T02:59:43.460Z,94399.94
2022-08-21T03:02:09.851Z,94403.82
2022-08-21T03:04:36.397Z,94402.19
2022-08-21T03:07:02.787Z,94400.41
2022-08-21T03:09:29.173Z,94394.90
2022-08-21T03:11:55.560Z,94401.38
2022-08-21T03:14:21.945Z,94385.77
2022-08-21T03:16:48.337Z,94398.78
2022-08-21T03:19:14.744Z,94397.48
2022-08-21T03:21:41.134Z,94393.61
2022-08-21T03:24:07.548Z,94387.65
2022-08-21T03:26:33.930Z,94389.73
2022-08-21T03:29:00.334Z,94390.23
2022-08-21T03:31:26.734Z,94397.48
2022-08-21T03:33:53.118Z,94394.12
2022-08-21T03:36:19.495Z,94401.71
2022-08-21T03:38:45.881Z,94403.17
2022-08-21T03:41:12.324Z,94405.25
2022-08-21T03:43:38.697Z,94407.05
2022-08-21T03:46:05.152Z,94410.12
2022-08-21T03:48:31.540Z,94410.42
2022-08-21T03:50:57.948Z,94403.31
2022-08-21T03:53:24.460Z,94408.01
2022-08-21T03:55:50.831Z,94403.31
2022-08-21T03:58:17.847Z,94400.38
2022-08-21T04:00:43.597Z,94405.77
2022-08-21T04:03:09.982Z,94408.01
2022-08-21T04:05:36.361Z,94408.01
2022-08-21T04:08:02.855Z,94411.89
2022-08-21T04:10:29.245Z,94418.83
2022-08-21T04:12:55.643Z,94418.83
2022-08-21T04:15:22.021Z,94411.89
2022-08-21T04:17:48.415Z,94408.48
2022-08-21T04:20:14.911Z,94408.48
2022-08-21T04:22:41.308Z,94413.18
2022-08-21T04:25:07.676Z,94412.84
2022-08-21T04:27:34.074Z,94413.18
2022-08-21T04:30:00.451Z,94404.60
2022-08-21T04:32:26.855Z,94412.36
2022-08-21T04:34:53.307Z,94419.17
2022-08-21T04:37:19.741Z,94414.81
2022-08-21T04:39:49.291Z,94407.19
2022-08-21T04:42:12.515Z,94398.61
2022-08-21T04:44:38.903Z,94399.42
2022-08-21T04:47:05.302Z,94398.95
2022-08-21T04:49:31.676Z,94402.36
2022-08-21T04:51:58.091Z,94403.17
2022-08-21T04:54:24.491Z,94405.25
2022-08-21T04:56:50.874Z,94407.84
2022-08-21T04:59:17.253Z,94399.77
2022-08-21T05:01:43.698Z,94399.60
2022-08-21T05:04:10.040Z,94402.02
2022-08-21T05:06:36.436Z,94398.00
2022-08-21T05:09:02.830Z,94405.59
2022-08-21T05:11:29.216Z,94399.60
2022-08-21T05:13:58.032Z,94401.38
2022-08-21T05:16:30.171Z,94401.23
2022-08-21T05:18:50.849Z,94393.61
2022-08-21T05:21:17.238Z,94396.88
2022-08-21T05:23:43.616Z,94395.41
2022-08-21T05:26:16.309Z,94393.98
2022-08-21T05:28:36.479Z,94396.09
2022-08-21T05:31:02.874Z,94398.69
2022-08-21T05:33:29.298Z,94401.10
2022-08-21T05:35:55.683Z,94402.26
2022-08-21T05:38:22.068Z,94398.69
2022-08-21T05:40:48.612Z,94398.21
2022-08-21T05:43:14.929Z,94397.73
2022-08-21T05:45:43.728Z,94388.34
2022-08-21T05:48:07.742Z,94380.57
2022-08-21T05:50:34.130Z,94383.50
2022-08-21T05:53:04.379Z,94387.28
2022-08-21T05:55:26.906Z,94390.34
2022-08-21T05:57:53.293Z,94383.39
2022-08-21T06:00:19.787Z,94383.39
2022-08-21T06:02:46.066Z,94387.28
2022-08-21T06:05:12.454Z,94382.58
2022-08-21T06:07:38.868Z,94389.38
2022-08-21T06:10:05.255Z,94394.05
2022-08-21T06:12:31.646Z,94392.76
2022-08-21T06:14:58.036Z,94383.39
2022-08-21T06:17:26.890Z,94378.87
2022-08-21T06:19:53.287Z,94380.64
2022-08-21T06:22:19.676Z,94377.91
2022-08-21T06:24:46.063Z,94374.20
2022-08-21T06:27:12.446Z,94381.80
2022-08-21T06:29:44.328Z,94383.43
2022-08-21T06:32:05.215Z,94383.29
2022-08-21T06:34:31.598Z,94374.06
2022-08-21T06:36:57.979Z,94381.34
2022-08-21T06:39:25.467Z,94384.28
2022-08-21T06:41:50.740Z,94382.17
2022-08-21T06:44:17.127Z,94384.76
2022-08-21T06:46:43.510Z,94389.45
2022-08-21T06:49:10.017Z,94396.74
2022-08-21T06:51:36.396Z,94395.59
2022-08-21T06:54:02.778Z,94401.10
2022-08-21T06:56:29.166Z,94398.03
2022-08-21T06:58:55.550Z,94398.20
2022-08-21T07:01:22.000Z,94399.20
2022-08-21T07:03:48.321Z,94399.67
2022-08-21T07:06:14.707Z,94395.95
2022-08-21T07:08:41.124Z,94394.05
2022-08-21T07:11:07.505Z,94394.83
2022-08-21T07:13:34.040Z,94397.45
2022-08-21T07:16:04.127Z,94393.91
2022-08-21T07:18:26.908Z,94396.53
2022-08-21T07:20:53.282Z,94392.95
2022-08-21T07:23:21.612Z,94392.64
2022-08-21T07:25:46.055Z,94390.05
2022-08-21T07:28:12.545Z,94383.92
2022-08-21T07:30:39.183Z,94381.97
2022-08-21T07:33:05.574Z,94378.91
2022-08-21T07:35:31.958Z,94375.50
2022-08-21T07:37:58.359Z,94378.42
2022-08-21T07:40:24.905Z,94378.28
2022-08-21T07:42:51.245Z,94371.50
2022-08-21T07:45:17.500Z,94369.05
2022-08-21T07:47:43.890Z,94364.04
2022-08-21T07:50:10.346Z,94363.08
2022-08-21T07:52:36.759Z,94360.48
2022-08-21T07:55:06.288Z,94362.13
2022-08-21T07:57:29.638Z,94363.90
2022-08-21T07:59:56.012Z,94367.13
2022-08-21T08:02:22.403Z,94365.53
2022-08-21T08:04:50.606Z,94363.92
2022-08-21T08:07:15.196Z,94364.66
2022-08-21T08:09:41.700Z,94365.95
2022-08-21T08:12:08.087Z,94366.13
2022-08-21T08:14:34.469Z,94363.03
2022-08-21T08:17:02.299Z,94366.27
2022-08-21T08:19:27.263Z,94367.84
2022-08-21T08:21:53.647Z,94373.53
2022-08-21T08:24:20.378Z,94374.48
2022-08-21T08:26:46.530Z,94373.02
2022-08-21T08:29:12.992Z,94372.72
2022-08-21T08:31:39.383Z,94363.17
2022-08-21T08:34:05.795Z,94371.59
2022-08-21T08:36:32.183Z,94371.76
2022-08-21T08:38:58.573Z,94377.11
2022-08-21T08:41:30.701Z,94375.19
2022-08-21T08:43:52.286Z,94376.15
2022-08-21T08:46:18.681Z,94376.81
2022-08-21T08:48:52.776Z,94376.34
2022-08-21T08:51:11.454Z,94366.16
2022-08-21T08:53:37.913Z,94365.98
2022-08-21T08:56:04.298Z,94366.46
2022-08-21T08:58:30.681Z,94365.17
2022-08-21T09:00:57.098Z,94361.28
2022-08-21T09:03:23.548Z,94356.10
2022-08-21T09:05:49.946Z,94355.59
2022-08-21T09:08:18.864Z,94357.40
2022-08-21T09:10:42.728Z,94355.13
2022-08-21T09:13:09.100Z,94349.12
2022-08-21T09:15:35.505Z,94349.75
2022-08-21T09:18:01.906Z,94344.41
2022-08-21T09:20:28.291Z,94343.76
2022-08-21T09:22:54.742Z,94341.81
2022-08-21T09:25:21.103Z,94343.25
2022-08-21T09:27:47.480Z,94343.92
2022-08-21T09:30:13.940Z,94338.41
2022-08-21T09:32:40.442Z,94276.58
2022-08-21T09:35:06.838Z,94335.84
2022-08-21T09:37:33.212Z,94335.03
2022-08-21T09:39:59.660Z,94332.44
2022-08-21T09:42:26.007Z,94329.52
2022-08-21T09:44:52.398Z,94327.59
2022-08-21T09:47:18.789Z,94330.67
2022-08-21T09:49:45.179Z,94333.73
2022-08-21T09:52:11.596Z,94332.61
2022-08-21T09:54:37.984Z,94335.84
2022-08-21T09:57:04.373Z,94334.05
2022-08-21T09:59:34.185Z,94333.40
2022-08-21T10:01:57.181Z,94331.14
2022-08-21T10:04:23.662Z,94326.92
2022-08-21T10:06:50.061Z,94321.75
2022-08-21T10:09:20.974Z,94315.77
2022-08-21T10:11:42.837Z,94316.42
2022-08-21T10:14:09.218Z,94322.41
2022-08-21T10:16:35.602Z,94315.16
2022-08-21T10:19:02.021Z,94319.52
2022-08-21T10:21:28.411Z,94316.45
2022-08-21T10:23:54.795Z,94314.98
2022-08-21T10:26:21.173Z,94314.02
2022-08-21T10:28:47.565Z,94311.09
2022-08-21T10:31:13.957Z,94309.47
2022-08-21T10:33:40.454Z,94313.34
2022-08-21T10:36:06.842Z,94305.92
2022-08-21T10:38:50.269Z,94305.92
2022-08-21T10:40:59.629Z,94306.23
2022-08-21T10:43:26.050Z,94303.16
2022-08-21T10:45:52.425Z,94300.41
2022-08-21T10:48:18.815Z,94294.58
2022-08-21T10:50:45.197Z,94298.64
2022-08-21T10:53:11.715Z,94293.45
2022-08-21T10:55:38.101Z,94289.58
2022-08-21T10:58:04.482Z,94285.04
2022-08-21T11:00:30.887Z,94276.11
2022-08-21T11:02:57.365Z,94274.70
2022-08-21T11:05:23.634Z,94272.25
2022-08-21T11:07:51.447Z,94267.75
2022-08-21T11:10:18.087Z,94265.16
2022-08-21T11:12:42.819Z,94257.55
2022-08-21T11:15:09.208Z,94257.22
2022-08-21T11:17:35.594Z,94251.70
2022-08-21T11:20:01.972Z,94245.73
2022-08-21T11:22:28.403Z,94240.40
2022-08-21T11:24:54.992Z,94240.88
2022-08-21T11:27:21.379Z,94238.11
2022-08-21T11:29:47.760Z,94241.85
2022-08-21T11:32:14.146Z,94242.47
2022-08-21T11:34:40.552Z,94239.91
2022-08-21T11:37:06.933Z,94246.06
2022-08-21T11:39:33.320Z,94246.52
2022-08-21T11:41:59.707Z,94247.81
2022-08-21T11:44:26.120Z,94242.33
2022-08-21T11:46:52.532Z,94234.70
2022-08-21T11:49:18.936Z,94236.96
2022-08-21T11:51:45.319Z,94237.27
2022-08-21T11:54:11.732Z,94239.37
2022-08-21T11:56:38.138Z,94235.16
2022-08-21T11:59:04.520Z,94231.91
2022-08-21T12:01:30.944Z,94228.50
2022-08-21T12:03:57.293Z,94228.48
2022-08-21T12:06:24.276Z,94218.30
2022-08-21T12:08:50.192Z,94216.05
2022-08-21T12:11:16.583Z,94214.25
2022-08-21T12:13:42.970Z,94208.59
2022-08-21T12:16:09.373Z,94210.05
2022-08-21T12:18:35.858Z,94216.69
2022-08-21T12:21:02.246Z,94222.98
2022-08-21T12:23:28.729Z,94221.39
2022-08-21T12:25:55.124Z,94226.25
2022-08-21T12:28:21.509Z,94223.33
2022-08-21T12:30:47.899Z,94225.41
2022-08-21T12:33:14.284Z,94227.06
2022-08-21T12:35:40.671Z,94226.89
2022-08-21T12:38:07.066Z,94225.27
2022-08-21T12:40:33.476Z,94224.78
2022-08-21T12:43:00.119Z,94223.66
2022-08-21T12:45:26.244Z,94226.41
2022-08-21T12:47:52.625Z,94225.59
2022-08-21T12:50:19.095Z,94226.89
2022-08-21T12:52:45.474Z,94222.20
2022-08-21T12:55:11.867Z,94220.08
2022-08-21T12:57:38.246Z,94212.02
2022-08-21T13:00:04.634Z,94211.02
2022-08-21T13:02:31.020Z,94203.44
2022-08-21T13:04:57.403Z,94207.14
2022-08-21T13:07:23.784Z,94204.55
2022-08-21T13:09:50.175Z,94209.42
2022-08-21T13:12:16.567Z,94201.66
2022-08-21T13:14:46.298Z,94206.84
2022-08-21T13:17:09.349Z,94206.50
2022-08-21T13:19:35.774Z,94203.58
2022-08-21T13:22:02.209Z,94206.50
2022-08-21T13:24:44.099Z,94203.91
2022-08-21T13:26:55.021Z,94198.25
2022-08-21T13:29:22.834Z,94202.62
2022-08-21T13:31:47.837Z,94196.14
2022-08-21T13:34:14.223Z,94200.03
2022-08-21T13:36:40.604Z,94190.48
2022-08-21T13:39:07.019Z,94183.36
2022-08-21T13:41:33.476Z,94182.41
2022-08-21T13:43:59.867Z,94173.82
2022-08-21T13:46:26.254Z,94170.75
2022-08-21T13:48:52.639Z,94172.53
2022-08-21T13:51:19.076Z,94179.00
2022-08-21T13:53:45.468Z,94189.53
2022-08-21T13:56:11.844Z,94188.23
2022-08-21T13:58:38.273Z,94190.01
2022-08-21T14:01:05.090Z,94186.75
2022-08-21T14:03:31.164Z,94181.57
2022-08-21T14:06:00.407Z,94179.48
2022-08-21T14:08:30.500Z,94181.75
2022-08-21T14:10:53.723Z,94181.43
2022-08-21T14:13:16.733Z,94181.94
2022-08-21T14:15:43.242Z,94179.99
2022-08-21T14:18:09.608Z,94175.45
2022-08-21T14:20:36.096Z,94169.16
2022-08-21T14:23:02.495Z,94163.17
2022-08-21T14:25:28.885Z,94167.54
2022-08-21T14:27:55.269Z,94165.92
2022-08-21T14:30:21.654Z,94165.14
2022-08-21T14:32:48.033Z,94163.50
2022-08-21T14:35:14.422Z,94168.70
2022-08-21T14:37:40.816Z,94174.36
2022-08-21T14:40:07.226Z,94178.09
2022-08-21T14:42:33.586Z,94180.52
2022-08-21T14:44:59.971Z,94174.20
2022-08-21T14:47:26.354Z,94164.59
2022-08-21T14:49:52.787Z,94164.75
2022-08-21T14:52:19.169Z,94162.89
2022-08-21T14:54:45.561Z,94166.42
2022-08-21T14:57:11.965Z,94165.06
2022-08-21T14:59:38.352Z,94167.64
2022-08-21T15:02:04.852Z,94160.02
2022-08-21T15:04:31.246Z,94157.38
2022-08-21T15:06:57.635Z,94153.96
2022-08-21T15:09:24.019Z,94153.77
2022-08-21T15:11:50.397Z,94153.59
2022-08-21T15:14:16.847Z,94146.83
2022-08-21T15:16:43.196Z,94147.97
2022-08-21T15:19:09.587Z,94140.36
2022-08-21T15:21:35.964Z,94137.16
2022-08-21T15:24:02.355Z,94129.90
2022-08-21T15:26:28.747Z,94124.70
2022-08-21T15:28:55.133Z,94116.44
2022-08-21T15:31:21.517Z,94105.45
2022-08-21T15:33:47.905Z,94109.98
2022-08-21T15:36:14.283Z,94106.24
2022-08-21T15:38:40.670Z,94103.97
2022-08-21T15:41:07.052Z,94099.45
2022-08-21T15:43:33.450Z,94096.38
2022-08-21T15:45:59.847Z,94110.13
2022-08-21T15:48:26.242Z,94105.09
2022-08-21T15:50:52.619Z,94097.67
2022-08-21T15:53:19.141Z,94093.74
2022-08-21T15:55:45.596Z,94103.75
2022-08-21T15:58:12.031Z,94090.73
2022-08-21T16:00:38.411Z,94094.95
2022-08-21T16:03:04.829Z,94092.02
2022-08-21T16:05:31.232Z,94090.42
2022-08-21T16:07:57.651Z,94093.63
2022-08-21T16:10:24.035Z,94098.49
2022-08-21T16:12:50.417Z,94097.14
2022-08-21T16:15:20.386Z,94107.45
2022-08-21T16:17:43.260Z,94108.91
2022-08-21T16:20:09.667Z,94116.05
2022-08-21T16:22:44.571Z,94119.11
2022-08-21T16:25:02.435Z,94120.07
2022-08-21T16:27:28.891Z,94136.59
2022-08-21T16:29:55.273Z,94140.27
2022-08-21T16:32:22.828Z,94147.37
2022-08-21T16:34:48.145Z,94152.05
2022-08-21T16:37:14.530Z,94151.37
2022-08-21T16:39:40.951Z,94149.45
2022-08-21T16:42:07.298Z,94153.81
2022-08-21T16:44:33.718Z,94151.23
2022-08-21T16:47:00.095Z,94155.61
2022-08-21T16:49:26.589Z,94152.24
2022-08-21T16:51:52.974Z,94152.72
2022-08-21T16:54:19.354Z,94154.08
2022-08-21T16:56:47.713Z,94158.45
2022-08-21T16:59:12.137Z,94161.38
2022-08-21T17:01:38.569Z,94156.38
2022-08-21T17:04:05.075Z,94152.38
2022-08-21T17:06:31.290Z,94153.16
2022-08-21T17:08:57.686Z,94159.02
2022-08-21T17:11:37.856Z,94165.64
2022-08-21T17:13:50.609Z,94170.84
2022-08-21T17:16:16.987Z,94177.28
2022-08-21T17:18:43.396Z,94183.13
2022-08-21T17:21:09.921Z,94186.05
2022-08-21T17:23:36.352Z,94184.13
2022-08-21T17:26:02.887Z,94187.84
2022-08-21T17:28:29.289Z,94201.59
2022-08-21T17:30:55.687Z,94212.61
2022-08-21T17:33:22.186Z,94216.32
2022-08-21T17:35:48.621Z,94212.44
2022-08-21T17:38:15.134Z,94211.01
2022-08-21T17:40:41.487Z,94220.88
2022-08-21T17:43:07.928Z,94217.16
2022-08-21T17:45:34.333Z,94219.44
2022-08-21T17:48:00.730Z,94217.02
2022-08-21T17:50:27.226Z,94224.95
2022-08-21T17:52:53.618Z,94230.94
2022-08-21T17:55:20.087Z,94230.97
2022-08-21T17:57:46.521Z,94233.22
2022-08-21T18:00:12.934Z,94237.41
2022-08-21T18:02:39.329Z,94237.13
2022-08-21T18:05:05.743Z,94242.30
2022-08-21T18:07:33.056Z,94241.64
2022-08-21T18:09:58.688Z,94239.37
2022-08-21T18:12:25.120Z,94243.42
2022-08-21T18:14:51.555Z,94247.81
2022-08-21T18:17:18.098Z,94253.13
2022-08-21T18:19:48.843Z,94257.34
2022-08-21T18:22:11.078Z,94257.48
2022-08-21T18:24:37.350Z,94260.07
2022-08-21T18:27:03.823Z,94261.36
2022-08-21T18:29:30.257Z,94262.66
2022-08-21T18:31:56.662Z,94259.09
2022-08-21T18:34:23.067Z,94247.95
2022-08-21T18:36:49.565Z,94250.70
2022-08-21T18:39:35.348Z,94243.59
2022-08-21T18:41:42.394Z,94246.01
2022-08-21T18:44:08.807Z,94237.13
2022-08-21T18:46:35.214Z,94242.94
2022-08-21T18:49:01.725Z,94248.77
2022-08-21T18:51:28.133Z,94243.42
2022-08-21T18:53:56.121Z,94255.23
2022-08-21T18:56:23.458Z,94249.72
2022-08-21T18:58:49.916Z,94252.17
2022-08-21T19:01:16.507Z,94249.58
2022-08-21T19:03:42.885Z,94252.47
2022-08-21T19:06:09.780Z,94253.94
2022-08-21T19:08:35.712Z,94258.16
2022-08-21T19:11:02.189Z,94264.29
2022-08-21T19:13:28.619Z,94265.59
2022-08-21T19:15:55.051Z,94265.73
2022-08-21T19:18:24.157Z,94265.42
2022-08-21T19:20:47.888Z,94265.42
2022-08-21T19:23:14.457Z,94263.30
2022-08-21T19:25:41.814Z,94274.00
2022-08-21T19:28:11.001Z,94271.07
2022-08-21T19:30:33.724Z,94275.91
2022-08-21T19:33:00.318Z,94275.91
2022-08-21T19:35:26.621Z,94279.79
2022-08-21T19:37:53.158Z,94282.38
2022-08-21T19:40:19.617Z,94286.73
2022-08-21T19:42:45.996Z,94288.84
2022-08-21T19:45:12.398Z,94290.81
2022-08-21T19:47:38.893Z,94299.87
2022-08-21T19:50:05.301Z,94301.81
2022-08-21T19:52:31.742Z,94306.98
2022-08-21T19:54:58.191Z,94311.20
2022-08-21T19:57:24.595Z,94306.17
2022-08-21T19:59:51.025Z,94307.80
2022-08-21T20:02:17.462Z,94304.06
2022-08-21T20:04:54.010Z,94309.09
2022-08-21T20:07:10.496Z,94309.58
2022-08-21T20:09:36.898Z,94305.36
2022-08-21T20:12:09.217Z,94292.75
2022-08-21T20:14:30.492Z,94290.98
2022-08-21T20:16:56.195Z,94291.47
2022-08-21T20:19:22.632Z,94296.47
2022-08-21T20:21:49.063Z,94296.30
2022-08-21T20:24:15.477Z,94298.58
2022-08-21T20:26:41.928Z,94295.00
2022-08-21T20:29:08.364Z,94290.00
2022-08-21T20:31:34.795Z,94285.47
2022-08-21T20:34:01.334Z,94293.23
2022-08-21T20:36:27.766Z,94291.94
2022-08-21T20:38:54.168Z,94294.70
2022-08-21T20:41:30.709Z,94297.42
2022-08-21T20:43:46.975Z,94291.91
2022-08-21T20:46:13.501Z,94294.70
2022-08-21T20:48:49.438Z,94298.86
2022-08-21T20:51:08.824Z,94290.31
2022-08-21T20:53:43.565Z,94281.73
2022-08-21T20:56:01.691Z,94285.13
2022-08-21T20:58:29.670Z,94276.86
2022-08-21T21:00:54.558Z,94277.03
2022-08-21T21:03:26.360Z,94283.33
2022-08-21T21:05:47.506Z,94288.20
2022-08-21T21:08:13.958Z,94285.92
2022-08-21T21:10:40.393Z,94290.62
2022-08-21T21:13:06.833Z,94297.09
2022-08-21T21:15:33.362Z,94297.26
2022-08-21T21:17:59.765Z,94298.55
2022-08-21T21:20:26.229Z,94303.25
2022-08-21T21:22:52.690Z,94300.16
2022-08-21T21:25:19.073Z,94302.73
2022-08-21T21:30:14.329Z,94301.62
2022-08-21T21:32:38.374Z,94303.72
2022-08-21T21:35:04.830Z,94312.30
2022-08-21T21:37:31.261Z,94306.79
2022-08-21T21:39:57.851Z,94299.50
2022-08-21T21:42:30.001Z,94293.03
2022-08-21T21:44:50.665Z,94290.45
2022-08-21T21:47:17.098Z,94292.22
2022-08-21T21:49:43.533Z,94303.72
2022-08-21T21:54:36.368Z,94298.55
2022-08-21T21:57:02.833Z,94295.48
2022-08-21T21:59:29.794Z,94295.97
2022-08-21T22:01:55.667Z,94296.78
2022-08-21T22:04:22.063Z,94294.33
2022-08-21T22:06:51.331Z,94296.10
2022-08-21T22:09:14.976Z,94299.03
2022-08-21T22:11:41.439Z,94302.43
2022-08-21T22:14:08.524Z,94305.84
2022-08-21T22:16:34.298Z,94299.84
2022-08-21T22:19:00.733Z,94293.03
2022-08-21T22:21:27.190Z,94296.44
2022-08-21T22:23:53.703Z,94287.86
2022-08-21T22:26:20.105Z,94285.61
2022-08-21T22:28:46.570Z,94295.97
2022-08-21T22:31:13.004Z,94294.19
2022-08-21T22:33:39.411Z,94294.19
2022-08-21T22:36:05.817Z,94293.38
2022-08-21T22:38:32.303Z,94293.03
2022-08-21T22:40:58.739Z,94283.50
2022-08-21T22:43:25.143Z,94292.08
2022-08-21T22:45:51.549Z,94283.50
2022-08-21T22:48:22.533Z,94280.91
2022-08-21T22:50:44.469Z,94273.63
2022-08-21T22:53:10.904Z,94267.16
2022-08-21T22:55:37.305Z,94261.98
2022-08-21T22:58:03.712Z,94265.87
2022-08-21T23:00:30.203Z,94269.27
2022-08-21T23:02:56.729Z,94270.23
2022-08-21T23:05:23.044Z,94274.59
2022-08-21T23:07:49.745Z,94274.11
2022-08-21T23:10:15.869Z,94278.80
2022-08-21T23:15:08.804Z,94282.69
2022-08-21T23:17:35.215Z,94284.32
2022-08-21T23:20:01.641Z,94285.27
2022-08-21T23:22:28.415Z,94290.92
2022-08-21T23:24:54.507Z,94288.81
2022-08-21T23:27:20.971Z,94294.80
2022-08-21T23:29:47.371Z,94293.03
2022-08-21T23:32:13.847Z,94294.80
2022-08-21T23:34:40.237Z,94295.80
2022-08-21T23:37:06.704Z,94294.50
2022-08-21T23:39:33.241Z,94297.88
2022-08-21T23:41:59.675Z,94300.45
2022-08-21T23:44:26.106Z,94310.03
2022-08-21T23:46:52.643Z,94309.20
2022-08-21T23:49:19.046Z,94296.58
2022-08-21T23:51:45.479Z,94300.45
2022-08-21T23:54:11.913Z,94301.92
2022-08-21T23:56:38.311Z,94298.52
2022-08-21T23:59:04.742Z,94282.52
